Time;durP1;ratioP1;P1;durP2;ratioP2;P2;SDS_P1;SDS_P2;PMS_P1;PMS_P2;Temp;Humidity;BMP_temperature;BMP_pressure;BME280_temperature;BME280_humidity;BME280_pressure;Samples;Min_cycle;Max_cycle;Signal;HPM_P1;HPM_P2
2023/04/07 00:01:22;;;;;;;4.83;4.30;;;;;;;9.44;52.21;96269.03;4967544;28;20553;-69
2023/04/07 00:03:48;;;;;;;6.37;4.70;;;;;;;9.32;52.40;96272.16;4968149;28;20169;-69
2023/04/07 00:06:13;;;;;;;4.90;4.20;;;;;;;9.33;53.42;96273.88;4968037;28;20174;-68
2023/04/07 00:08:39;;;;;;;7.10;4.40;;;;;;;9.36;54.33;96268.50;4967976;28;20193;-69
2023/04/07 00:11:05;;;;;;;10.80;5.90;;;;;;;9.20;55.88;96268.28;4966375;28;20612;-69
2023/04/07 00:13:30;;;;;;;6.10;5.03;;;;;;;9.23;55.67;96265.53;4966939;28;20170;-69
2023/04/07 00:15:56;;;;;;;6.43;4.20;;;;;;;9.24;55.96;96262.00;4964719;28;20730;-69
2023/04/07 00:18:21;;;;;;;8.93;5.10;;;;;;;9.24;55.72;96259.41;4956086;28;20197;-69
2023/04/07 00:20:47;;;;;;;8.03;5.60;;;;;;;9.33;54.97;96266.03;4957353;28;20939;-69
2023/04/07 00:23:12;;;;;;;6.87;4.90;;;;;;;9.24;56.32;96255.94;4959346;28;20631;-68
2023/04/07 00:25:37;;;;;;;7.13;5.17;;;;;;;9.25;57.05;96253.22;4953720;28;20170;-68
2023/04/07 00:28:03;;;;;;;8.30;6.07;;;;;;;9.36;56.93;96249.34;4963952;28;20181;-70
2023/04/07 00:30:28;;;;;;;8.23;6.30;;;;;;;9.23;57.30;96239.34;4965619;28;20597;-67
2023/04/07 00:32:54;;;;;;;6.33;5.40;;;;;;;9.18;57.92;96245.69;4957682;28;20181;-69
2023/04/07 00:35:19;;;;;;;8.00;6.40;;;;;;;9.29;58.40;96235.63;4949162;28;20198;-68
2023/04/07 00:37:45;;;;;;;7.30;6.30;;;;;;;9.24;58.50;96229.75;4959382;28;20220;-68
2023/04/07 00:40:11;;;;;;;10.00;6.40;;;;;;;9.19;58.85;96229.06;4967560;28;20588;-68
2023/04/07 00:42:36;;;;;;;10.80;6.93;;;;;;;9.20;58.98;96228.16;4967315;28;20494;-68
2023/04/07 00:45:02;;;;;;;8.37;7.33;;;;;;;9.15;59.44;96220.50;4967736;28;20182;-68
2023/04/07 00:47:27;;;;;;;10.97;5.80;;;;;;;9.16;59.41;96216.09;4960699;28;20189;-68
2023/04/07 00:49:52;;;;;;;8.17;6.23;;;;;;;9.08;59.89;96211.19;4949068;28;20194;-67
2023/04/07 00:52:26;;;;;;;10.70;7.27;;;;;;;9.13;60.01;96219.69;4962689;28;20539;-68
2023/04/07 00:54:53;;;;;;;20.53;7.60;;;;;;;8.98;60.29;96213.34;4967833;28;20174;-67
2023/04/07 00:57:18;;;;;;;9.53;6.50;;;;;;;8.99;60.68;96211.56;4967408;28;20962;-68
2023/04/07 00:59:44;;;;;;;9.80;8.27;;;;;;;8.80;61.43;96214.06;4967188;28;20460;-68
2023/04/07 01:02:15;;;;;;;9.60;7.17;;;;;;;8.89;61.59;96213.72;4967390;28;20208;-68
2023/04/07 01:04:40;;;;;;;8.80;7.10;;;;;;;8.51;62.38;96197.75;4967600;28;20640;-68
2023/04/07 01:07:36;;;;;;;9.33;7.33;;;;;;;8.65;62.21;96194.63;4967208;28;20428;-68
2023/04/07 01:10:05;;;;;;;7.93;7.13;;;;;;;8.76;61.52;96191.56;4960386;28;20210;-67
2023/04/07 01:13:01;;;;;;;9.60;6.83;;;;;;;8.73;61.62;96181.22;4952414;28;20850;-68
2023/04/07 01:15:30;;;;;;;14.33;7.97;;;;;;;8.67;61.11;96182.31;4965176;28;20499;-68
2023/04/07 01:18:20;;;;;;;11.90;7.83;;;;;;;8.71;62.38;96181.28;4963734;28;20421;-67
2023/04/07 01:20:50;;;;;;;12.90;8.50;;;;;;;8.82;62.00;96176.47;4960019;28;20509;-68
2023/04/07 01:23:53;;;;;;;11.03;7.47;;;;;;;8.88;61.39;96180.59;4952220;28;20426;-67
2023/04/07 01:26:48;;;;;;;9.23;8.23;;;;;;;8.56;62.16;96179.28;4954391;28;20448;-68
2023/04/07 01:29:34;;;;;;;11.80;9.20;;;;;;;8.51;63.11;96174.22;4955273;28;20985;-68
2023/04/07 01:32:03;;;;;;;10.47;8.67;;;;;;;8.69;62.76;96175.25;4953601;28;20735;-67
2023/04/07 01:34:30;;;;;;;11.30;9.27;;;;;;;8.67;62.40;96177.09;4952016;28;20461;-68
2023/04/07 01:36:58;;;;;;;11.67;8.67;;;;;;;8.63;62.82;96176.34;4951972;28;20465;-70
2023/04/07 01:39:25;;;;;;;11.63;8.77;;;;;;;8.55;63.26;96182.78;4952095;28;20883;-69
2023/04/07 01:41:53;;;;;;;9.47;8.00;;;;;;;8.26;63.95;96180.34;4963844;28;20441;-68
2023/04/07 01:44:19;;;;;;;13.87;7.90;;;;;;;8.01;64.58;96177.84;4970392;28;20838;-68
2023/04/07 01:46:45;;;;;;;18.13;8.97;;;;;;;7.92;65.40;96179.94;4957416;28;20426;-68
2023/04/07 01:49:12;;;;;;;10.10;9.10;;;;;;;8.06;65.16;96172.44;4957601;28;20820;-69
2023/04/07 01:51:39;;;;;;;11.07;8.97;;;;;;;8.10;64.82;96168.78;4960418;28;20178;-67
2023/04/07 01:54:06;;;;;;;11.87;8.40;;;;;;;7.61;66.73;96166.22;4951434;28;20927;-68
2023/04/07 01:56:31;;;;;;;12.27;9.17;;;;;;;7.61;67.41;96160.16;4951277;28;20493;-68
2023/04/07 01:58:56;;;;;;;9.40;8.30;;;;;;;7.54;67.30;96166.50;4951840;28;20697;-67
2023/04/07 02:01:22;;;;;;;11.93;8.80;;;;;;;7.67;66.61;96159.09;4951966;28;20197;-67
2023/04/07 02:04:00;;;;;;;9.60;8.17;;;;;;;7.50;67.63;96154.47;4954542;28;20642;-67
2023/04/07 02:06:34;;;;;;;10.47;8.50;;;;;;;7.49;67.25;96152.75;4951410;28;20319;-68
2023/04/07 02:09:06;;;;;;;11.57;8.73;;;;;;;7.89;65.62;96146.94;4951543;28;20445;-68
2023/04/07 02:11:33;;;;;;;14.70;8.50;;;;;;;7.88;65.56;96147.84;4951548;28;20436;-68
2023/04/07 02:14:01;;;;;;;10.93;8.47;;;;;;;7.81;65.77;96147.22;4952587;28;20795;-68
2023/04/07 02:16:30;;;;;;;17.40;9.33;;;;;;;8.03;64.87;96144.66;4950973;28;20466;-68
2023/04/07 02:18:56;;;;;;;9.23;6.93;;;;;;;8.09;64.23;96138.34;4957189;28;20442;-68
2023/04/07 02:21:22;;;;;;;12.43;8.50;;;;;;;8.01;64.37;96140.41;4959745;28;20456;-69
2023/04/07 02:23:48;;;;;;;12.90;8.60;;;;;;;7.97;64.91;96131.81;4963084;28;20502;-67
2023/04/07 02:26:14;;;;;;;9.53;8.47;;;;;;;7.72;65.97;96128.41;4955845;28;20422;-68
2023/04/07 02:28:39;;;;;;;11.27;8.37;;;;;;;7.46;66.25;96121.53;4967151;28;20228;-68
2023/04/07 02:31:05;;;;;;;11.63;7.87;;;;;;;7.45;66.22;96117.22;4954086;28;20178;-68
2023/04/07 02:33:30;;;;;;;11.07;8.60;;;;;;;7.60;66.20;96125.34;4952128;28;20185;-68
2023/04/07 02:35:55;;;;;;;10.20;7.33;;;;;;;7.51;66.57;96122.22;4958349;28;20632;-68
2023/04/07 02:38:21;;;;;;;10.37;8.50;;;;;;;7.79;65.91;96122.91;4958857;28;20901;-68
2023/04/07 02:40:46;;;;;;;11.57;7.80;;;;;;;7.75;65.84;96121.34;4959122;28;20186;-68
2023/04/07 02:43:11;;;;;;;12.40;7.90;;;;;;;7.65;65.47;96114.72;4955625;28;20236;-68
2023/04/07 02:45:37;;;;;;;10.20;7.53;;;;;;;7.53;66.36;96118.63;4950548;28;20540;-68
2023/04/07 02:48:02;;;;;;;9.37;7.77;;;;;;;7.42;66.53;96111.22;4950570;28;20194;-68
2023/04/07 02:50:28;;;;;;;12.90;8.70;;;;;;;7.50;66.29;96117.91;4950830;28;20189;-68
2023/04/07 02:52:53;;;;;;;11.40;8.10;;;;;;;7.51;65.91;96114.38;4950523;28;20182;-67
2023/04/07 02:55:19;;;;;;;12.27;8.30;;;;;;;7.54;65.35;96107.31;4950676;28;20233;-68
2023/04/07 02:57:44;;;;;;;18.10;8.80;;;;;;;7.55;65.49;96108.16;4950298;28;20672;-68
2023/04/07 03:00:10;;;;;;;10.40;8.07;;;;;;;7.50;65.70;96103.09;4950677;28;20202;-68
2023/04/07 03:02:36;;;;;;;15.90;8.47;;;;;;;7.45;66.58;96101.56;4955205;28;20185;-68
2023/04/07 03:05:03;;;;;;;9.60;8.40;;;;;;;7.68;65.48;96104.19;4969614;28;20425;-69
2023/04/07 03:07:30;;;;;;;11.90;8.40;;;;;;;7.41;66.36;96095.59;4950832;28;20189;-69
2023/04/07 03:09:56;;;;;;;8.93;7.27;;;;;;;7.54;65.95;96093.41;4966269;28;20540;-69
2023/04/07 03:12:21;;;;;;;11.27;8.93;;;;;;;7.52;65.78;96085.63;4963884;28;20512;-68
2023/04/07 03:14:47;;;;;;;13.27;8.20;;;;;;;7.58;65.58;96085.41;4960324;28;20192;-69
2023/04/07 03:17:12;;;;;;;9.57;7.77;;;;;;;7.55;65.87;96089.88;4960949;28;20232;-69
2023/04/07 03:19:37;;;;;;;10.67;9.33;;;;;;;7.64;65.14;96081.69;4954726;28;20547;-68
2023/04/07 03:22:03;;;;;;;16.03;9.50;;;;;;;7.62;65.76;96080.91;4959278;28;20285;-69
2023/04/07 03:24:28;;;;;;;12.73;8.67;;;;;;;7.63;65.82;96086.06;4949939;28;20182;-68
2023/04/07 03:26:54;;;;;;;10.97;9.70;;;;;;;7.74;65.85;96077.81;4963106;28;20272;-69
2023/04/07 03:29:20;;;;;;;11.50;8.27;;;;;;;7.61;65.25;96081.81;4963277;28;20208;-69
2023/04/07 03:31:45;;;;;;;11.30;8.70;;;;;;;7.60;66.17;96077.50;4957069;28;20759;-68
2023/04/07 03:34:11;;;;;;;13.47;9.43;;;;;;;7.39;66.54;96072.16;4951345;28;20182;-69
2023/04/07 03:36:36;;;;;;;10.37;8.23;;;;;;;7.46;66.02;96069.31;4950617;28;20217;-68
2023/04/07 03:39:02;;;;;;;14.33;9.00;;;;;;;7.41;66.90;96072.94;4953130;28;20267;-69
2023/04/07 03:41:27;;;;;;;13.43;8.33;;;;;;;7.57;65.98;96072.38;4967298;28;20200;-69
2023/04/07 03:43:53;;;;;;;12.87;7.80;;;;;;;7.27;66.82;96069.97;4953734;28;20205;-69
2023/04/07 03:46:20;;;;;;;9.70;8.70;;;;;;;7.34;66.45;96062.78;4949271;28;20182;-68
2023/04/07 03:48:46;;;;;;;9.83;7.80;;;;;;;7.35;66.43;96067.13;4949469;28;20198;-69
2023/04/07 03:51:11;;;;;;;12.60;9.33;;;;;;;7.58;65.73;96068.84;4954822;28;20467;-68
2023/04/07 03:53:37;;;;;;;10.00;8.27;;;;;;;7.14;67.32;96063.53;4959890;28;21448;-68
2023/04/07 03:56:03;;;;;;;15.77;8.70;;;;;;;7.62;65.75;96065.22;4967771;28;20209;-68
2023/04/07 03:58:28;;;;;;;8.57;7.47;;;;;;;7.25;67.75;96060.50;4968439;28;20197;-68
2023/04/07 04:00:54;;;;;;;11.07;9.53;;;;;;;7.06;68.73;96065.53;4963192;28;20181;-68
2023/04/07 04:03:19;;;;;;;13.03;9.13;;;;;;;6.94;68.70;96066.81;4957830;28;20863;-68
2023/04/07 04:05:45;;;;;;;19.03;8.50;;;;;;;6.99;68.75;96062.28;4964945;28;20213;-69
2023/04/07 04:08:10;;;;;;;10.37;8.60;;;;;;;7.08;68.04;96058.50;4967760;28;20177;-69
2023/04/07 04:10:36;;;;;;;14.03;9.73;;;;;;;7.18;68.00;96052.91;4963466;28;20174;-70
2023/04/07 04:13:05;;;;;;;16.80;9.27;;;;;;;7.43;66.90;96055.47;4957606;28;20194;-68
2023/04/07 04:15:31;;;;;;;10.37;9.07;;;;;;;7.68;66.11;96046.72;4949094;28;20554;-67
2023/04/07 04:17:56;;;;;;;12.13;9.37;;;;;;;7.76;65.46;96038.59;4949977;28;20451;-68
2023/04/07 04:20:21;;;;;;;14.13;8.40;;;;;;;7.88;65.13;96045.94;4955110;28;20212;-68
2023/04/07 04:22:47;;;;;;;17.77;9.17;;;;;;;7.69;65.46;96051.03;4959134;28;20176;-68
2023/04/07 04:25:12;;;;;;;14.70;9.27;;;;;;;7.64;66.02;96039.91;4967607;28;20634;-69
2023/04/07 04:27:37;;;;;;;10.80;8.70;;;;;;;7.81;65.82;96036.66;4967514;28;20269;-67
2023/04/07 04:30:04;;;;;;;25.50;10.33;;;;;;;7.58;67.29;96034.91;4963081;28;20202;-68
2023/04/07 04:32:29;;;;;;;11.37;9.30;;;;;;;7.42;67.94;96037.28;4960202;28;20206;-67
2023/04/07 04:34:54;;;;;;;21.53;10.27;;;;;;;7.49;67.33;96046.56;4948995;28;20625;-68
2023/04/07 04:37:20;;;;;;;13.90;9.90;;;;;;;7.41;67.99;96036.41;4948483;28;20198;-67
2023/04/07 04:39:45;;;;;;;12.63;9.77;;;;;;;7.51;67.11;96038.66;4953390;28;20617;-68
2023/04/07 04:42:11;;;;;;;13.03;9.20;;;;;;;7.31;67.79;96040.25;4959115;28;20193;-68
2023/04/07 04:44:36;;;;;;;12.30;10.33;;;;;;;7.14;68.75;96037.44;4953430;28;20213;-68
2023/04/07 04:47:02;;;;;;;13.30;9.30;;;;;;;7.14;68.92;96037.44;4969262;28;20178;-67
2023/04/07 04:49:27;;;;;;;18.60;11.50;;;;;;;7.47;68.02;96035.34;4965654;28;20197;-70
2023/04/07 04:51:52;;;;;;;16.80;10.63;;;;;;;7.62;66.83;96039.97;4965342;28;20265;-68
2023/04/07 04:54:18;;;;;;;13.63;9.33;;;;;;;7.46;67.57;96043.22;4969126;28;20603;-68
2023/04/07 04:56:44;;;;;;;13.57;9.70;;;;;;;7.50;67.28;96039.59;4961371;28;20205;-68
2023/04/07 04:59:09;;;;;;;14.27;10.87;;;;;;;7.34;68.46;96047.97;4971183;28;20197;-68
2023/04/07 05:01:35;;;;;;;12.93;10.60;;;;;;;7.46;67.96;96038.00;4965465;28;20182;-68
2023/04/07 05:04:00;;;;;;;14.40;10.63;;;;;;;7.60;67.43;96036.56;4968835;28;20184;-69
2023/04/07 05:06:26;;;;;;;13.37;10.17;;;;;;;7.41;67.94;96036.41;4970622;28;20213;-69
2023/04/07 05:08:52;;;;;;;14.50;9.93;;;;;;;7.34;68.42;96039.28;4971518;28;20197;-68
2023/04/07 05:11:18;;;;;;;12.90;10.80;;;;;;;6.97;69.61;96046.72;4965740;28;20185;-67
2023/04/07 05:13:43;;;;;;;13.53;10.40;;;;;;;6.88;69.98;96041.81;4964323;28;20317;-68
2023/04/07 05:16:09;;;;;;;17.00;12.00;;;;;;;6.73;70.48;96042.31;4951676;28;20213;-68
2023/04/07 05:18:34;;;;;;;14.77;10.00;;;;;;;7.14;69.05;96047.88;4959168;28;20241;-68
2023/04/07 05:21:00;;;;;;;13.40;9.43;;;;;;;7.30;68.60;96043.78;4958682;28;20216;-70
2023/04/07 05:23:26;;;;;;;17.77;10.57;;;;;;;7.25;68.76;96043.09;4969130;28;20273;-67
2023/04/07 05:25:51;;;;;;;18.17;9.90;;;;;;;7.22;68.42;96035.38;4952680;28;20517;-67
2023/04/07 05:28:17;;;;;;;13.10;9.67;;;;;;;7.26;68.58;96046.56;4956777;28;20185;-68
2023/04/07 05:30:42;;;;;;;12.30;10.90;;;;;;;7.14;68.76;96042.66;4969963;28;20177;-68
2023/04/07 05:33:08;;;;;;;20.70;10.20;;;;;;;7.16;69.18;96036.47;4954600;28;20197;-69
2023/04/07 05:35:33;;;;;;;20.53;9.63;;;;;;;7.33;68.50;96041.06;4966340;28;20300;-68
2023/04/07 05:37:59;;;;;;;23.30;10.53;;;;;;;7.34;68.56;96039.28;4951363;28;20181;-69
2023/04/07 05:40:24;;;;;;;13.43;10.17;;;;;;;7.42;68.85;96032.91;4962896;28;20217;-68
2023/04/07 05:42:50;;;;;;;13.63;9.47;;;;;;;7.09;69.74;96034.97;4954331;28;20175;-68
2023/04/07 05:45:15;;;;;;;17.53;10.37;;;;;;;7.19;69.63;96032.88;4952919;28;20173;-68
2023/04/07 05:47:41;;;;;;;21.07;10.83;;;;;;;7.11;69.69;96032.31;4951158;28;20178;-69
2023/04/07 05:50:07;;;;;;;14.67;9.50;;;;;;;7.06;69.58;96035.06;4956049;28;20236;-69
2023/04/07 05:52:32;;;;;;;14.00;8.20;;;;;;;7.30;69.10;96035.09;4970144;28;20269;-68
2023/04/07 05:54:58;;;;;;;14.73;10.67;;;;;;;7.29;69.25;96036.00;4959746;28;20186;-68
2023/04/07 05:57:23;;;;;;;33.83;11.90;;;;;;;7.32;69.57;96043.72;4968525;28;20209;-69
2023/04/07 05:59:49;;;;;;;17.43;9.80;;;;;;;7.33;69.48;96043.66;4965111;28;20265;-68
2023/04/07 06:02:14;;;;;;;38.60;13.30;;;;;;;7.67;68.37;96037.19;4970059;28;20189;-68
2023/04/07 06:04:40;;;;;;;20.37;11.70;;;;;;;7.48;68.34;96041.41;4952831;28;20194;-69
2023/04/07 06:07:06;;;;;;;30.13;11.03;;;;;;;7.74;68.08;96028.19;4958857;28;20167;-68
2023/04/07 06:09:31;;;;;;;23.30;11.40;;;;;;;7.83;68.04;96034.84;4955652;28;20309;-69
2023/04/07 06:11:57;;;;;;;28.50;11.10;;;;;;;7.96;67.17;96033.44;4954082;28;20440;-69
2023/04/07 06:14:23;;;;;;;15.37;11.00;;;;;;;7.53;69.16;96031.63;4951205;28;20284;-68
2023/04/07 06:16:49;;;;;;;12.00;9.40;;;;;;;7.48;69.39;96030.97;4961362;28;20480;-69
2023/04/07 06:19:14;;;;;;;16.80;9.83;;;;;;;7.77;67.93;96035.94;4963700;28;20221;-69
2023/04/07 06:21:40;;;;;;;15.57;10.33;;;;;;;7.61;68.50;96038.28;4966011;28;20177;-69
2023/04/07 06:24:06;;;;;;;16.20;11.13;;;;;;;7.80;68.17;96040.19;4969537;28;20177;-69
2023/04/07 06:26:31;;;;;;;13.13;10.73;;;;;;;8.04;67.85;96040.97;4958546;28;20277;-68
2023/04/07 06:28:57;;;;;;;18.50;9.40;;;;;;;7.89;67.75;96031.13;4955881;28;20197;-68
2023/04/07 06:31:24;;;;;;;20.63;10.40;;;;;;;8.07;67.24;96026.00;4955946;28;20186;-67
2023/04/07 06:33:51;;;;;;;22.43;12.33;;;;;;;8.09;66.52;96022.50;4951040;28;20189;-69
2023/04/07 06:36:17;;;;;;;12.57;9.60;;;;;;;8.00;67.00;96018.50;4961652;28;20548;-68
2023/04/07 06:38:42;;;;;;;25.53;11.30;;;;;;;8.09;66.87;96019.91;4964683;28;20549;-68
2023/04/07 06:41:11;;;;;;;40.27;12.17;;;;;;;8.30;65.61;96019.03;4965734;28;20198;-68
2023/04/07 06:43:37;;;;;;;22.97;10.97;;;;;;;8.31;66.06;96017.25;4969242;28;20323;-68
2023/04/07 06:46:02;;;;;;;20.10;12.23;;;;;;;8.42;65.35;96015.09;4964430;28;20536;-68
2023/04/07 06:48:28;;;;;;;13.93;9.60;;;;;;;8.48;65.18;96022.69;4959788;28;20277;-68
2023/04/07 06:50:53;;;;;;;13.20;9.90;;;;;;;8.13;66.48;96022.31;4953751;28;20171;-68
2023/04/07 06:53:19;;;;;;;33.40;11.83;;;;;;;8.32;66.33;96024.19;4968461;28;20297;-68
2023/04/07 06:55:44;;;;;;;24.43;9.93;;;;;;;7.90;66.97;96028.47;4959558;28;20562;-68
2023/04/07 06:58:10;;;;;;;16.20;9.47;;;;;;;7.75;68.36;96029.91;4960163;28;20190;-68
2023/04/07 07:00:35;;;;;;;15.73;9.53;;;;;;;7.94;68.09;96029.19;4960414;28;20183;-70
2023/04/07 07:03:01;;;;;;;13.50;10.50;;;;;;;8.30;66.06;96026.88;4959995;28;20461;-70
2023/04/07 07:05:27;;;;;;;15.57;10.23;;;;;;;8.56;65.05;96023.19;4969771;28;20185;-68
2023/04/07 07:07:52;;;;;;;15.33;10.07;;;;;;;8.77;63.23;96018.81;4982437;28;21047;-69
2023/04/07 07:10:21;;;;;;;18.43;10.57;;;;;;;8.76;63.18;96026.72;4986569;28;20436;-70
2023/04/07 07:12:47;;;;;;;43.50;13.00;;;;;;;9.01;62.82;96022.13;4953641;28;20189;-68
2023/04/07 07:15:12;;;;;;;13.47;10.27;;;;;;;9.18;61.87;96029.25;4966484;28;20433;-69
2023/04/07 07:17:37;;;;;;;43.63;12.90;;;;;;;9.59;61.56;96026.56;4970180;28;20208;-70
2023/04/07 07:20:03;;;;;;;37.90;11.20;;;;;;;10.17;59.61;96022.94;4956544;28;20571;-68
2023/04/07 07:22:29;;;;;;;14.13;10.33;;;;;;;10.08;60.10;96015.50;4950217;28;20179;-68
2023/04/07 07:24:55;;;;;;;25.20;11.73;;;;;;;9.90;59.26;96017.25;4948778;28;20264;-68
2023/04/07 07:27:20;;;;;;;13.40;9.47;;;;;;;9.93;58.93;96015.31;4963598;28;20185;-68
2023/04/07 07:29:46;;;;;;;16.37;10.30;;;;;;;11.01;56.55;96015.28;4983970;28;20636;-67
2023/04/07 07:32:11;;;;;;;18.53;10.43;;;;;;;11.69;53.79;96006.44;4956328;28;20185;-68
2023/04/07 07:34:36;;;;;;;12.90;10.30;;;;;;;11.59;53.72;96012.19;4969173;28;20165;-68
2023/04/07 07:37:02;;;;;;;19.23;11.63;;;;;;;11.51;53.88;96006.50;4967198;28;20296;-68
2023/04/07 07:39:28;;;;;;;24.53;13.40;;;;;;;11.81;52.82;96005.75;4968206;28;20198;-69
2023/04/07 07:41:54;;;;;;;18.00;10.93;;;;;;;11.88;52.58;96003.69;4961617;28;20264;-69
2023/04/07 07:44:21;;;;;;;13.47;10.03;;;;;;;11.42;54.19;96005.22;4966973;28;20836;-69
2023/04/07 07:46:47;;;;;;;19.00;10.80;;;;;;;11.34;54.40;96006.53;4967986;28;20417;-68
2023/04/07 07:49:13;;;;;;;13.03;10.13;;;;;;;10.35;56.81;96014.22;4952933;28;20471;-68
2023/04/07 07:51:38;;;;;;;15.30;9.80;;;;;;;11.04;54.78;96007.25;4963037;28;20791;-68
2023/04/07 07:54:03;;;;;;;61.67;13.10;;;;;;;11.01;54.99;96005.63;4956872;28;20182;-68
2023/04/07 07:56:29;;;;;;;12.87;10.10;;;;;;;11.66;53.00;96007.44;4968508;28;20269;-67
2023/04/07 07:58:54;;;;;;;11.27;9.43;;;;;;;12.21;51.31;96008.81;4955568;28;20217;-68
2023/04/07 08:01:20;;;;;;;14.23;10.47;;;;;;;12.32;51.06;96009.06;4976549;28;20619;-68
2023/04/07 08:03:46;;;;;;;14.43;10.03;;;;;;;11.82;52.45;96010.94;4968422;28;20817;-68
2023/04/07 08:06:11;;;;;;;15.50;11.13;;;;;;;11.69;52.51;96002.03;4958896;28;20185;-68
2023/04/07 08:08:37;;;;;;;20.53;11.23;;;;;;;12.11;51.24;96012.91;4967684;28;20209;-70
2023/04/07 08:11:03;;;;;;;11.20;9.70;;;;;;;12.41;50.34;96005.91;4964118;28;20188;-69
2023/04/07 08:13:28;;;;;;;11.30;9.37;;;;;;;11.15;52.46;96006.66;4958299;28;20356;-68
2023/04/07 08:15:54;;;;;;;17.37;10.07;;;;;;;11.11;53.64;96013.88;4949852;28;20210;-68
2023/04/07 08:18:19;;;;;;;20.97;11.07;;;;;;;11.74;51.85;96007.03;4951156;28;20192;-69
2023/04/07 08:20:45;;;;;;;14.13;9.13;;;;;;;11.84;51.49;96018.75;4949073;28;20224;-69
2023/04/07 08:23:11;;;;;;;11.10;9.50;;;;;;;11.98;51.68;96010.13;4954141;28;20182;-69
2023/04/07 08:25:40;;;;;;;10.40;9.00;;;;;;;12.32;50.10;96011.69;4960255;28;20185;-68
2023/04/07 08:28:05;;;;;;;14.47;9.67;;;;;;;12.58;49.83;96009.34;4952873;28;20261;-69
2023/04/07 08:30:31;;;;;;;17.17;11.17;;;;;;;12.50;49.71;96012.44;4954331;28;20420;-69
2023/04/07 08:32:56;;;;;;;21.60;10.43;;;;;;;12.86;48.21;96009.44;4958590;28;20177;-69
2023/04/07 08:35:22;;;;;;;16.10;9.70;;;;;;;12.80;49.08;96006.31;4948970;28;20182;-69
2023/04/07 08:37:48;;;;;;;10.17;9.17;;;;;;;13.09;47.00;96012.50;4949607;28;20178;-68
2023/04/07 08:40:14;;;;;;;15.70;10.40;;;;;;;12.60;48.69;96012.75;4957122;28;20299;-68
2023/04/07 08:42:42;;;;;;;11.47;9.90;;;;;;;11.70;51.08;96022.13;4968053;28;20756;-69
2023/04/07 08:45:09;;;;;;;11.77;9.80;;;;;;;12.06;50.04;96018.44;4956310;28;20961;-70
2023/04/07 08:47:36;;;;;;;9.90;8.90;;;;;;;12.34;48.93;96016.88;4949494;28;20424;-68
2023/04/07 08:50:04;;;;;;;11.93;9.90;;;;;;;12.21;49.26;96009.69;4956323;28;20453;-69
2023/04/07 08:52:40;;;;;;;14.13;9.50;;;;;;;12.62;48.99;96003.00;4963252;28;20481;-67
2023/04/07 08:55:07;;;;;;;10.17;9.17;;;;;;;12.01;48.96;96007.34;4951029;28;20437;-68
2023/04/07 08:57:33;;;;;;;10.20;9.20;;;;;;;12.19;49.50;96010.69;4948653;28;20647;-68
2023/04/07 09:00:04;;;;;;;18.23;10.20;;;;;;;12.35;48.75;96015.94;4948716;28;20446;-68
2023/04/07 09:02:32;;;;;;;11.83;8.90;;;;;;;12.75;47.76;96009.22;4952461;28;20454;-69
2023/04/07 09:04:58;;;;;;;22.27;10.93;;;;;;;13.07;47.65;96004.66;4947569;28;20419;-69
2023/04/07 09:07:23;;;;;;;16.87;10.67;;;;;;;13.36;46.92;96012.63;4954812;28;20447;-68
2023/04/07 09:09:49;;;;;;;14.27;9.60;;;;;;;13.66;44.97;96009.88;4967896;28;20193;-67
2023/04/07 09:12:15;;;;;;;29.03;13.27;;;;;;;13.68;45.03;96015.09;4967897;28;20192;-67
2023/04/07 09:14:41;;;;;;;17.03;10.10;;;;;;;13.52;44.59;96010.75;4968102;28;20173;-67
2023/04/07 09:17:06;;;;;;;66.47;14.80;;;;;;;13.61;45.95;96011.97;4960456;28;20672;-66
2023/04/07 09:19:32;;;;;;;27.47;11.83;;;;;;;13.45;45.60;96013.88;4973437;28;20433;-67
2023/04/07 09:21:58;;;;;;;18.60;10.27;;;;;;;13.42;45.51;96007.00;4979817;28;20431;-67
2023/04/07 09:24:27;;;;;;;17.33;11.67;;;;;;;13.37;46.03;96010.84;4966503;28;20433;-67
2023/04/07 09:27:09;;;;;;;11.23;9.43;;;;;;;13.02;46.73;96004.09;4955895;28;20182;-67
2023/04/07 09:29:35;;;;;;;16.43;11.17;;;;;;;13.26;46.40;96017.59;4951151;28;20456;-68
2023/04/07 09:32:00;;;;;;;36.43;11.90;;;;;;;13.25;46.99;96009.75;4958037;28;20429;-68
2023/04/07 09:34:28;;;;;;;10.80;9.03;;;;;;;12.98;47.94;96002.59;4977447;28;20712;-67
2023/04/07 09:36:55;;;;;;;14.13;9.93;;;;;;;12.11;49.41;96003.25;4979115;28;20209;-68
2023/04/07 09:39:21;;;;;;;17.20;9.47;;;;;;;12.63;48.89;96009.94;4958692;28;20865;-67
2023/04/07 09:41:46;;;;;;;10.98;9.20;;;;;;;12.47;48.58;96002.06;4953636;28;20441;-67
2023/04/07 09:44:12;;;;;;;21.40;9.40;;;;;;;12.46;48.30;96003.84;4976010;28;20647;-69
2023/04/07 09:46:51;;;;;;;11.07;9.07;;;;;;;12.81;47.23;96006.22;4971974;28;20290;-68
2023/04/07 09:49:19;;;;;;;20.07;9.63;;;;;;;12.51;48.66;96000.97;4972145;28;20222;-66
2023/04/07 09:51:59;;;;;;;19.93;10.03;;;;;;;12.87;47.45;96003.25;4964315;28;20468;-67
2023/04/07 09:54:36;;;;;;;25.33;10.43;;;;;;;13.14;46.54;95997.25;4971847;28;20536;-67
2023/04/07 09:57:03;;;;;;;19.27;10.57;;;;;;;13.58;45.62;95992.84;4961634;28;20469;-69
2023/04/07 09:59:30;;;;;;;10.23;9.13;;;;;;;13.01;46.96;96006.81;4973429;28;20463;-68
2023/04/07 10:01:56;;;;;;;12.00;8.87;;;;;;;13.36;46.37;96004.72;4969121;28;20754;-68
2023/04/07 10:04:22;;;;;;;8.93;8.00;;;;;;;13.85;45.98;96006.09;4964046;28;20438;-68
2023/04/07 10:06:48;;;;;;;16.43;8.80;;;;;;;14.23;43.81;96003.66;4965082;28;20704;-68
2023/04/07 10:09:13;;;;;;;17.93;9.30;;;;;;;14.42;42.19;95990.09;4973238;28;20463;-70
2023/04/07 10:11:41;;;;;;;26.10;10.20;;;;;;;14.48;42.73;95996.75;4994291;28;20237;-68
2023/04/07 10:14:08;;;;;;;30.40;10.23;;;;;;;14.43;43.56;95997.06;4967691;28;20436;-69
2023/04/07 10:16:35;;;;;;;14.63;9.63;;;;;;;13.78;45.72;96003.00;4964910;28;20516;-68
2023/04/07 10:19:01;;;;;;;12.10;10.90;;;;;;;13.35;47.74;95995.13;4955439;28;20461;-69
2023/04/07 10:21:27;;;;;;;28.40;11.27;;;;;;;13.54;48.12;95992.22;4972664;28;20440;-68
2023/04/07 10:24:03;;;;;;;11.70;10.60;;;;;;;13.42;48.63;95992.97;4983236;28;20435;-69
2023/04/07 10:26:33;;;;;;;10.53;9.43;;;;;;;12.70;49.70;95995.47;4955601;28;20437;-69
2023/04/07 10:29:09;;;;;;;11.40;10.20;;;;;;;12.63;50.01;95999.41;4961112;28;20456;-69
2023/04/07 10:31:36;;;;;;;11.70;10.30;;;;;;;12.27;51.11;96003.22;4956860;28;20539;-66
2023/04/07 10:34:02;;;;;;;16.50;10.50;;;;;;;13.00;49.32;96003.34;4965976;28;20505;-69
2023/04/07 10:36:28;;;;;;;12.77;9.03;;;;;;;12.91;48.74;95998.63;4957975;28;20469;-69
2023/04/07 10:39:08;;;;;;;12.70;9.37;;;;;;;13.18;47.91;95992.63;4951701;28;20289;-69
2023/04/07 10:41:38;;;;;;;10.10;8.33;;;;;;;12.99;47.12;95993.75;4979855;28;20193;-69
2023/04/07 10:44:05;;;;;;;9.00;8.10;;;;;;;13.31;47.05;95997.09;4963441;28;20429;-71
2023/04/07 10:46:50;;;;;;;14.73;8.70;;;;;;;12.67;49.05;95999.13;4958997;28;20535;-69
2023/04/07 10:49:17;;;;;;;8.90;7.03;;;;;;;13.59;49.90;95997.19;4968748;28;20461;-69
2023/04/07 10:51:42;;;;;;;13.73;6.27;;;;;;;14.50;47.15;95989.59;4973228;28;20584;-69
2023/04/07 10:54:21;;;;;;;18.03;7.40;;;;;;;14.43;46.88;95983.84;4970803;28;20513;-69
2023/04/07 10:57:02;;;;;;;10.00;7.70;;;;;;;13.92;45.87;95986.31;4958580;28;20297;-69
2023/04/07 10:59:34;;;;;;;12.43;10.23;;;;;;;13.08;49.78;95992.34;4965568;28;20523;-70
2023/04/07 11:02:11;;;;;;;12.67;10.20;;;;;;;13.07;50.04;95990.66;4959969;28;20472;-69
2023/04/07 11:04:38;;;;;;;10.07;9.07;;;;;;;12.57;50.46;95991.88;4957222;28;20437;-68
2023/04/07 11:07:03;;;;;;;11.70;10.27;;;;;;;12.24;52.25;95996.38;4971563;28;20504;-70
2023/04/07 11:09:29;;;;;;;13.97;9.80;;;;;;;12.41;51.21;95990.13;4985527;28;20455;-68
2023/04/07 11:11:55;;;;;;;10.23;9.13;;;;;;;12.39;51.21;95991.16;4972909;28;20195;-69
2023/04/07 11:14:31;;;;;;;14.33;10.17;;;;;;;12.69;51.20;95983.25;4952405;28;20179;-69
2023/04/07 11:16:58;;;;;;;9.50;8.33;;;;;;;13.13;49.22;95985.88;4968364;28;20611;-69
2023/04/07 11:19:24;;;;;;;11.23;8.40;;;;;;;13.54;47.08;95992.22;4955010;28;20453;-70
2023/04/07 11:21:49;;;;;;;10.10;7.97;;;;;;;13.64;47.75;95989.84;4950080;28;20440;-69
2023/04/07 11:24:36;;;;;;;11.83;9.00;;;;;;;13.21;48.86;95989.84;4959683;28;20175;-69
2023/04/07 11:27:02;;;;;;;18.30;8.73;;;;;;;13.30;48.45;95990.16;4949834;28;20182;-69
2023/04/07 11:29:31;;;;;;;10.63;9.50;;;;;;;13.02;49.59;95993.56;4950883;28;21249;-69